createdAt,value
2019-03-02T00:00:34.895Z,12.18
2019-03-02T00:03:01.638Z,12.85
2019-03-02T00:05:29.665Z,58.68
2019-03-02T00:07:56.982Z,7.12
2019-03-02T00:10:24.137Z,12.55
2019-03-02T00:12:51.150Z,7.60
2019-03-02T00:15:18.557Z,6.95
2019-03-02T00:17:46.046Z,14.28
2019-03-02T00:20:14.749Z,1.90
2019-03-02T00:22:43.539Z,8.23
2019-03-02T00:25:11.366Z,6.65
2019-03-02T00:27:38.427Z,11.08
2019-03-02T00:30:06.185Z,19.07
2019-03-02T00:32:33.942Z,13.60
2019-03-02T00:35:03.806Z,5.95
2019-03-02T00:37:32.844Z,3.65
2019-03-02T00:39:59.611Z,4.80
2019-03-02T00:42:27.366Z,4.50
2019-03-02T00:44:54.639Z,4.53
2019-03-02T00:47:23.687Z,8.25
2019-03-02T00:49:51.462Z,6.70
2019-03-02T00:52:20.536Z,9.80
2019-03-02T00:54:57.732Z,4.83
2019-03-02T00:57:18.663Z,4.67
2019-03-02T00:59:45.499Z,6.70
2019-03-02T01:02:13.954Z,1.75
2019-03-02T01:04:40.651Z,6.33
2019-03-02T01:07:07.682Z,1.00
2019-03-02T01:09:35.018Z,2.98
2019-03-02T01:12:01.922Z,15.28
2019-03-02T01:14:31.802Z,21.52
2019-03-02T01:16:58.309Z,4.70
2019-03-02T01:19:25.368Z,6.35
2019-03-02T01:21:52.318Z,2.95
2019-03-02T01:24:19.145Z,5.62
2019-03-02T01:26:47.459Z,2.87
2019-03-02T01:29:15.537Z,3.92
2019-03-02T01:31:45.906Z,2.17
2019-03-02T01:34:12.696Z,1.70
2019-03-02T01:36:40.075Z,3.12
2019-03-02T01:39:06.965Z,6.55
2019-03-02T01:41:35.029Z,4.45
2019-03-02T01:44:02.164Z,6.00
2019-03-02T01:46:28.870Z,2.25
2019-03-02T01:48:58.633Z,9.95
2019-03-02T01:51:25.681Z,4.08
2019-03-02T01:53:53.100Z,0.90
2019-03-02T01:56:19.787Z,4.10
2019-03-02T01:58:47.213Z,2.20
2019-03-02T02:01:14.286Z,10.48
2019-03-02T02:03:43.595Z,1.98
2019-03-02T02:06:11.036Z,9.90
2019-03-02T02:08:38.576Z,0.90
2019-03-02T02:11:05.726Z,12.05
2019-03-02T02:13:32.674Z,11.10
2019-03-02T02:16:01.725Z,6.53
2019-03-02T02:18:29.551Z,8.40
2019-03-02T02:20:57.497Z,11.70
2019-03-02T02:23:25.349Z,10.98
2019-03-02T02:25:52.830Z,5.05
2019-03-02T02:28:19.982Z,5.25
2019-03-02T02:30:47.543Z,3.87
2019-03-02T02:33:14.788Z,6.65
2019-03-02T02:35:41.848Z,3.47
2019-03-02T02:38:11.151Z,9.05
2019-03-02T02:40:38.298Z,10.10
2019-03-02T02:43:20.931Z,4.25
2019-03-02T02:45:57.281Z,1.92
2019-03-02T02:48:31.241Z,1.30
2019-03-02T02:50:57.671Z,9.00
2019-03-02T02:53:24.678Z,3.95
2019-03-02T02:55:51.716Z,4.53
2019-03-02T02:58:19.424Z,4.67
2019-03-02T03:00:50.028Z,6.78
2019-03-02T03:03:15.938Z,14.50
2019-03-02T03:05:49.376Z,13.18
2019-03-02T03:08:15.659Z,4.30
2019-03-02T03:10:43.562Z,8.43
2019-03-02T03:13:10.766Z,8.65
2019-03-02T03:15:43.104Z,5.80
2019-03-02T03:18:14.936Z,6.65
2019-03-02T03:20:47.840Z,11.08
2019-03-02T03:23:08.684Z,4.17
2019-03-02T03:25:35.974Z,7.35
2019-03-02T03:28:04.409Z,1.62
2019-03-02T03:30:36.433Z,8.05
2019-03-02T03:33:00.413Z,2.98
2019-03-02T03:35:27.461Z,7.92
2019-03-02T03:37:55.164Z,1.30
2019-03-02T03:40:25.659Z,3.25
2019-03-02T03:42:52.547Z,13.00
2019-03-02T03:45:19.765Z,1.30
2019-03-02T03:47:47.437Z,4.87
2019-03-02T03:50:15.804Z,2.75
2019-03-02T03:52:43.981Z,7.05
2019-03-02T03:55:13.603Z,10.05
2019-03-02T03:57:42.890Z,17.73
2019-03-02T04:00:12.442Z,4.65
2019-03-02T04:02:39.654Z,6.97
2019-03-02T04:05:09.801Z,5.03
2019-03-02T04:07:37.880Z,10.08
2019-03-02T04:10:06.187Z,17.20
2019-03-02T04:12:33.256Z,11.78
2019-03-02T04:15:01.294Z,10.90
2019-03-02T04:17:34.104Z,9.70
2019-03-02T04:20:01.093Z,5.40
2019-03-02T04:22:28.377Z,3.67
2019-03-02T04:24:55.648Z,3.45
2019-03-02T04:27:22.984Z,16.57
2019-03-02T04:29:55.144Z,4.83
2019-03-02T04:32:27.122Z,11.22
2019-03-02T04:34:49.078Z,5.20
2019-03-02T04:37:20.353Z,8.25
2019-03-02T04:39:46.371Z,4.35
2019-03-02T04:42:15.465Z,8.83
2019-03-02T04:44:43.011Z,22.58
2019-03-02T04:47:10.796Z,1.10
2019-03-02T04:49:38.078Z,4.47
2019-03-02T04:52:04.749Z,6.22
2019-03-02T04:54:37.404Z,11.88
2019-03-02T04:57:00.873Z,6.05
2019-03-02T04:59:28.674Z,4.87
2019-03-02T05:01:55.338Z,2.90
2019-03-02T05:04:22.248Z,6.25
2019-03-02T05:06:50.616Z,6.05
2019-03-02T05:09:20.036Z,3.27
2019-03-02T05:11:48.206Z,6.37
2019-03-02T05:14:15.241Z,13.20
2019-03-02T05:16:43.453Z,4.45
2019-03-02T05:19:11.180Z,5.85
2019-03-02T05:21:39.822Z,12.03
2019-03-02T05:24:10.230Z,2.05
2019-03-02T05:26:37.293Z,4.58
2019-03-02T05:29:04.901Z,3.17
2019-03-02T05:31:31.811Z,5.30
2019-03-02T05:34:00.760Z,1.10
2019-03-02T05:36:28.597Z,5.22
2019-03-02T05:38:55.633Z,13.60
2019-03-02T05:41:22.586Z,6.95
2019-03-02T05:43:49.341Z,19.65
2019-03-02T05:46:16.009Z,21.85
2019-03-02T05:48:44.587Z,3.15
2019-03-02T05:51:11.539Z,14.18
2019-03-02T05:53:38.756Z,6.00
2019-03-02T05:56:06.554Z,7.42
2019-03-02T05:58:33.941Z,6.80
2019-03-02T06:01:01.100Z,2.58
2019-03-02T06:03:28.270Z,6.90
2019-03-02T06:05:55.363Z,5.58
2019-03-02T06:08:22.769Z,2.85
2019-03-02T06:10:49.806Z,15.35
2019-03-02T06:13:16.482Z,8.90
2019-03-02T06:15:46.340Z,2.10
2019-03-02T06:18:13.337Z,9.88
2019-03-02T06:20:40.623Z,6.45
2019-03-02T06:23:08.231Z,1.80
2019-03-02T06:25:35.555Z,13.45
2019-03-02T06:28:03.044Z,5.47
2019-03-02T06:30:30.507Z,6.78
2019-03-02T06:32:58.191Z,7.75
2019-03-02T06:35:29.071Z,3.92
2019-03-02T06:37:56.478Z,6.62
2019-03-02T06:40:23.874Z,4.62
2019-03-02T06:42:51.163Z,5.70
2019-03-02T06:45:18.324Z,2.15
2019-03-02T06:47:45.650Z,23.05
2019-03-02T06:50:12.564Z,13.50
2019-03-02T06:52:40.282Z,4.05
2019-03-02T06:55:08.890Z,4.35
2019-03-02T06:57:35.589Z,4.95
2019-03-02T07:00:04.876Z,6.92
2019-03-02T07:02:31.745Z,8.98
2019-03-02T07:04:59.039Z,7.75
2019-03-02T07:07:26.460Z,3.72
2019-03-02T07:09:53.503Z,2.65
2019-03-02T07:12:20.292Z,1.52
2019-03-02T07:14:48.213Z,6.03
2019-03-02T07:17:21.143Z,6.53
2019-03-02T07:20:00.687Z,3.70
2019-03-02T07:22:28.182Z,2.70
2019-03-02T07:24:55.218Z,6.65
2019-03-02T07:27:22.169Z,4.00
2019-03-02T07:29:49.770Z,9.93
2019-03-02T07:32:17.534Z,5.67
2019-03-02T07:34:44.954Z,3.90
2019-03-02T07:37:12.426Z,4.08
2019-03-02T07:39:39.361Z,16.25
2019-03-02T07:42:07.531Z,11.08
2019-03-02T07:44:35.214Z,7.45
2019-03-02T07:47:01.900Z,8.53
2019-03-02T07:49:28.572Z,1.30
2019-03-02T07:51:56.858Z,10.35
2019-03-02T07:54:24.010Z,6.58
2019-03-02T07:56:50.741Z,3.77
2019-03-02T07:59:17.770Z,8.98
2019-03-02T08:01:44.467Z,11.48
2019-03-02T08:04:11.152Z,5.47
2019-03-02T08:06:37.850Z,5.20
2019-03-02T08:09:06.150Z,2.22
2019-03-02T08:11:33.854Z,14.73
2019-03-02T08:14:01.599Z,10.18
2019-03-02T08:16:28.527Z,8.25
2019-03-02T08:18:55.302Z,4.58
2019-03-02T08:21:22.621Z,9.83
2019-03-02T08:23:49.643Z,2.87
2019-03-02T08:26:17.622Z,2.30
2019-03-02T08:28:45.841Z,3.90
2019-03-02T08:31:13.650Z,7.15
2019-03-02T08:33:45.799Z,9.18
2019-03-02T08:36:13.133Z,5.65
2019-03-02T08:38:39.460Z,2.90
2019-03-02T08:41:06.273Z,13.78
2019-03-02T08:43:33.451Z,3.95
2019-03-02T08:46:03.510Z,10.70
2019-03-02T08:48:28.758Z,8.30
2019-03-02T08:50:55.458Z,5.70
2019-03-02T08:53:23.481Z,2.50
2019-03-02T08:55:50.806Z,7.87
2019-03-02T08:58:17.946Z,5.83
2019-03-02T09:00:45.113Z,12.90
2019-03-02T09:03:12.016Z,3.65
2019-03-02T09:05:44.451Z,5.92
2019-03-02T09:08:08.806Z,5.80
2019-03-02T09:10:37.065Z,7.58
2019-03-02T09:13:04.455Z,6.15
2019-03-02T09:15:32.046Z,4.97
2019-03-02T09:17:59.763Z,3.05
2019-03-02T09:20:26.774Z,1.92
2019-03-02T09:22:56.440Z,2.65
2019-03-02T09:25:27.857Z,3.85
2019-03-02T09:27:53.086Z,3.50
2019-03-02T09:30:20.456Z,2.05
2019-03-02T09:32:51.004Z,2.65
2019-03-02T09:35:18.236Z,10.45
2019-03-02T09:37:46.513Z,9.55
2019-03-02T09:40:14.455Z,2.42
2019-03-02T09:42:42.126Z,5.97
2019-03-02T09:45:11.689Z,5.53
2019-03-02T09:47:39.428Z,7.20
2019-03-02T09:50:10.055Z,1.35
2019-03-02T09:52:37.898Z,2.25
2019-03-02T09:55:06.904Z,10.82
2019-03-02T09:57:34.828Z,2.42
2019-03-02T10:00:02.015Z,2.52
2019-03-02T10:02:30.919Z,1.72
2019-03-02T10:04:57.966Z,1.20
2019-03-02T10:07:25.736Z,1.17
2019-03-02T10:09:52.563Z,1.65
2019-03-02T10:12:20.406Z,1.82
2019-03-02T10:14:47.998Z,6.22
2019-03-02T10:17:15.430Z,8.63
2019-03-02T10:19:42.262Z,15.55
2019-03-02T10:22:09.043Z,7.55
2019-03-02T10:24:36.169Z,1.00
2019-03-02T10:27:03.202Z,1.45
2019-03-02T10:29:32.301Z,1.50
2019-03-02T10:31:59.234Z,2.77
2019-03-02T10:34:26.412Z,1.50
2019-03-02T10:36:53.530Z,2.10
2019-03-02T10:39:20.205Z,2.15
2019-03-02T10:41:47.446Z,2.20
2019-03-02T10:44:17.780Z,2.42
2019-03-02T10:46:44.005Z,3.08
2019-03-02T10:49:13.222Z,2.50
2019-03-02T10:51:41.162Z,5.22
2019-03-02T10:54:08.505Z,4.12
2019-03-02T10:56:36.515Z,1.40
2019-03-02T10:59:03.837Z,2.95
2019-03-02T11:01:31.013Z,2.58
2019-03-02T11:03:57.737Z,2.67
2019-03-02T11:06:40.567Z,2.05
2019-03-02T11:09:27.052Z,2.50
2019-03-02T11:12:06.965Z,2.15
2019-03-02T11:14:59.838Z,2.67
2019-03-02T11:17:39.699Z,3.27
2019-03-02T11:20:26.657Z,1.57
2019-03-02T11:23:09.512Z,1.30
2019-03-02T11:25:45.595Z,3.90
2019-03-02T11:28:26.277Z,2.15
2019-03-02T11:31:17.981Z,2.27
2019-03-02T11:34:10.589Z,3.47
2019-03-02T11:37:12.864Z,4.62
2019-03-02T11:40:02.828Z,2.72
2019-03-02T11:42:51.153Z,3.47
2019-03-02T11:45:38.522Z,4.87
2019-03-02T11:48:27.939Z,2.80
2019-03-02T11:51:30.052Z,4.60
2019-03-02T11:54:25.066Z,6.60
2019-03-02T11:57:08.046Z,7.30
2019-03-02T11:59:49.769Z,3.97
2019-03-02T12:02:25.951Z,3.52
2019-03-02T12:05:10.230Z,2.37
2019-03-02T12:07:56.528Z,2.30
2019-03-02T12:10:39.957Z,3.13
2019-03-02T12:13:27.685Z,2.80
2019-03-02T12:16:15.731Z,2.27
2019-03-02T12:19:11.268Z,2.40
2019-03-02T12:22:13.310Z,3.53
2019-03-02T12:24:54.788Z,6.40
2019-03-02T12:27:42.241Z,11.90
2019-03-02T12:30:30.962Z,2.57
2019-03-02T12:33:17.010Z,6.63
2019-03-02T12:36:23.766Z,3.90
2019-03-02T12:39:11.265Z,4.90
2019-03-02T12:41:48.980Z,3.17
2019-03-02T12:44:35.358Z,5.30
2019-03-02T12:47:13.879Z,6.20
2019-03-02T12:50:09.379Z,3.13
2019-03-02T12:53:03.409Z,1.50
2019-03-02T12:55:56.963Z,4.30
2019-03-02T12:58:47.120Z,1.53
2019-03-02T13:01:21.209Z,1.60
2019-03-02T13:03:57.493Z,2.43
2019-03-02T13:06:39.284Z,4.07
2019-03-02T13:09:27.542Z,4.90
2019-03-02T13:12:13.370Z,4.90
2019-03-02T13:15:05.951Z,3.27
2019-03-02T13:17:45.499Z,2.80
2019-03-02T13:20:52.123Z,2.33
2019-03-02T13:23:44.881Z,2.70
2019-03-02T13:26:20.679Z,4.83
2019-03-02T13:28:55.613Z,4.53
2019-03-02T13:31:40.008Z,2.23
2019-03-02T13:34:39.670Z,11.33
2019-03-02T13:37:44.249Z,2.23
2019-03-02T13:40:46.472Z,3.50
2019-03-02T13:43:31.913Z,4.50
2019-03-02T13:46:16.904Z,3.60
2019-03-02T13:49:03.248Z,4.87
2019-03-02T13:52:07.491Z,7.03
2019-03-02T13:54:48.726Z,3.13
2019-03-02T13:57:33.451Z,6.60
2019-03-02T14:00:18.614Z,6.80
2019-03-02T14:03:10.704Z,4.57
2019-03-02T14:06:05.715Z,8.37
2019-03-02T14:08:45.038Z,7.43
2019-03-02T14:11:36.421Z,8.00
2019-03-02T14:14:20.218Z,5.57
2019-03-02T14:17:04.249Z,5.47
2019-03-02T14:19:38.165Z,10.73
2019-03-02T14:22:22.298Z,9.63
2019-03-02T14:25:07.279Z,5.00
2019-03-02T14:28:06.354Z,8.20
2019-03-02T14:30:53.372Z,4.37
2019-03-02T14:33:31.203Z,5.47
2019-03-02T14:36:08.742Z,4.83
2019-03-02T14:39:13.578Z,4.13
2019-03-02T14:41:58.501Z,4.50
2019-03-02T14:44:51.143Z,3.50
2019-03-02T14:47:40.706Z,7.93
2019-03-02T14:50:36.541Z,3.43
2019-03-02T14:53:12.938Z,5.00
2019-03-02T14:55:47.511Z,6.40
2019-03-02T14:58:23.290Z,4.50
2019-03-02T15:01:08.671Z,2.83
2019-03-02T15:03:54.601Z,6.47
2019-03-02T15:06:30.673Z,10.37
2019-03-02T15:09:15.229Z,3.53
2019-03-02T15:11:52.177Z,2.67
2019-03-02T15:14:27.969Z,6.53
2019-03-02T15:17:34.488Z,3.97
2019-03-02T15:20:13.891Z,9.50
2019-03-02T15:23:04.173Z,3.93
2019-03-02T15:25:49.812Z,7.03
2019-03-02T15:28:33.892Z,16.43
2019-03-02T15:31:20.264Z,12.07
2019-03-02T15:33:54.491Z,55.53
2019-03-02T15:36:28.843Z,31.10
2019-03-02T15:39:34.473Z,14.77
2019-03-02T15:42:12.810Z,7.60
2019-03-02T15:45:11.206Z,13.97
2019-03-02T15:48:10.438Z,17.10
2019-03-02T15:50:55.818Z,6.07
2019-03-02T15:53:36.405Z,19.90
2019-03-02T15:56:41.460Z,5.27
2019-03-02T15:59:17.814Z,7.67
2019-03-02T16:02:22.702Z,11.90
2019-03-02T16:04:56.565Z,10.13
2019-03-02T16:07:38.670Z,8.77
2019-03-02T16:10:14.822Z,6.17
2019-03-02T16:12:54.325Z,13.10
2019-03-02T16:15:28.022Z,10.50
2019-03-02T16:18:08.416Z,6.77
2019-03-02T16:20:46.522Z,4.60
2019-03-02T16:23:32.915Z,41.20
2019-03-02T16:26:16.948Z,13.57
2019-03-02T16:29:01.311Z,143.53
2019-03-02T16:31:50.077Z,34.13
2019-03-02T16:34:32.847Z,29.90
2019-03-02T16:37:19.680Z,15.43
2019-03-02T16:40:12.274Z,28.57
2019-03-02T16:42:53.358Z,23.47
2019-03-02T16:45:36.341Z,34.63
2019-03-02T16:48:24.986Z,29.40
2019-03-02T16:51:26.018Z,14.13
2019-03-02T16:54:15.643Z,13.53
2019-03-02T16:56:57.619Z,12.77
2019-03-02T16:59:51.276Z,14.33
2019-03-02T17:02:37.173Z,13.43
2019-03-02T17:05:13.645Z,12.33
2019-03-02T17:08:00.364Z,9.30
2019-03-02T17:10:45.962Z,13.63
2019-03-02T17:13:31.969Z,11.80
2019-03-02T17:16:35.646Z,22.80
2019-03-02T17:19:12.830Z,13.00
2019-03-02T17:21:52.839Z,13.23
2019-03-02T17:24:32.821Z,13.30
2019-03-02T17:27:08.162Z,11.67
2019-03-02T17:29:54.846Z,9.77
2019-03-02T17:32:44.466Z,13.80
2019-03-02T17:35:25.620Z,11.33
2019-03-02T17:38:18.075Z,11.23
2019-03-02T17:41:14.866Z,15.10
2019-03-02T17:44:07.295Z,13.80
2019-03-02T17:46:47.134Z,13.00
2019-03-02T17:49:29.710Z,17.30
2019-03-02T17:52:13.316Z,8.57
2019-03-02T17:55:14.006Z,13.20
2019-03-02T17:58:20.215Z,11.80
2019-03-02T18:01:19.946Z,12.17
2019-03-02T18:04:05.878Z,17.67
2019-03-02T18:06:55.788Z,16.73
2019-03-02T18:09:53.086Z,10.27
2019-03-02T18:12:41.106Z,7.33
2019-03-02T18:15:22.054Z,19.07
2019-03-02T18:18:02.122Z,16.03
2019-03-02T18:20:31.936Z,15.80
2019-03-02T18:22:59.437Z,19.60
2019-03-02T18:25:26.419Z,13.70
2019-03-02T18:27:53.537Z,17.93
2019-03-02T18:30:21.506Z,12.17
2019-03-02T18:32:50.762Z,18.17
2019-03-02T18:35:17.682Z,20.23
2019-03-02T18:37:45.095Z,15.27
2019-03-02T18:40:13.609Z,16.43
2019-03-02T18:42:40.994Z,19.87
2019-03-02T18:45:08.397Z,19.57
2019-03-02T18:47:35.560Z,18.07
2019-03-02T18:50:12.057Z,15.00
2019-03-02T18:52:45.094Z,18.87
2019-03-02T18:55:13.474Z,19.70
2019-03-02T18:57:41.059Z,29.97
2019-03-02T19:00:16.167Z,21.93
2019-03-02T19:02:43.967Z,25.40
2019-03-02T19:05:13.224Z,27.30
2019-03-02T19:07:41.212Z,26.90
2019-03-02T19:10:08.953Z,22.07
2019-03-02T19:12:35.942Z,16.20
2019-03-02T19:15:04.013Z,20.80
2019-03-02T19:17:30.782Z,37.87
2019-03-02T19:19:58.179Z,19.70
2019-03-02T19:22:25.493Z,29.07
2019-03-02T19:24:53.690Z,30.50
2019-03-02T19:27:22.084Z,25.93
2019-03-02T19:29:49.738Z,27.83
2019-03-02T19:32:17.531Z,39.30
2019-03-02T19:34:45.477Z,34.83
2019-03-02T19:37:13.012Z,28.97
2019-03-02T19:39:40.348Z,37.43
2019-03-02T19:42:07.412Z,28.83
2019-03-02T19:44:34.192Z,34.90
2019-03-02T19:47:01.227Z,41.50
2019-03-02T19:49:29.039Z,31.53
2019-03-02T19:51:55.997Z,26.57
2019-03-02T19:54:22.698Z,35.53
2019-03-02T19:56:49.822Z,19.87
2019-03-02T19:59:16.587Z,28.40
2019-03-02T20:01:50.062Z,24.73
2019-03-02T20:04:18.678Z,28.83
2019-03-02T20:06:46.807Z,36.17
2019-03-02T20:09:13.853Z,33.93
2019-03-02T20:11:41.475Z,44.57
2019-03-02T20:14:08.624Z,27.97
2019-03-02T20:16:35.901Z,37.07
2019-03-02T20:19:03.076Z,47.93
2019-03-02T20:21:30.113Z,57.53
2019-03-02T20:23:56.969Z,24.20
2019-03-02T20:26:23.750Z,43.30
2019-03-02T20:28:50.967Z,38.53
2019-03-02T20:31:17.880Z,55.80
2019-03-02T20:33:45.241Z,84.77
2019-03-02T20:36:12.014Z,33.33
2019-03-02T20:38:39.052Z,44.90
2019-03-02T20:41:07.115Z,48.17
2019-03-02T20:43:34.584Z,65.80
2019-03-02T20:46:02.480Z,52.93
2019-03-02T20:48:29.974Z,69.63
2019-03-02T20:50:57.342Z,74.63
2019-03-02T20:53:24.501Z,46.83
2019-03-02T20:55:53.555Z,45.77
2019-03-02T20:58:21.313Z,41.90
2019-03-02T21:00:51.259Z,77.90
2019-03-02T21:03:19.533Z,46.70
2019-03-02T21:05:46.556Z,47.70
2019-03-02T21:08:14.254Z,44.60
2019-03-02T21:10:41.800Z,42.87
2019-03-02T21:13:08.953Z,41.77
2019-03-02T21:15:36.565Z,41.57
2019-03-02T21:18:04.459Z,35.07
2019-03-02T21:20:31.851Z,39.67
2019-03-02T21:22:59.586Z,45.53
2019-03-02T21:25:27.672Z,29.10
2019-03-02T21:27:54.996Z,51.00
2019-03-02T21:30:21.783Z,77.23
2019-03-02T21:32:48.714Z,44.20
2019-03-02T21:35:15.726Z,37.97
2019-03-02T21:37:42.918Z,45.53
2019-03-02T21:40:15.842Z,36.87
2019-03-02T21:42:43.449Z,48.57
2019-03-02T21:45:12.447Z,40.20
2019-03-02T21:47:39.935Z,59.23
2019-03-02T21:50:09.310Z,48.97
2019-03-02T21:52:36.566Z,43.03
2019-03-02T21:55:03.905Z,48.53
2019-03-02T21:57:30.781Z,53.47
2019-03-02T21:59:57.634Z,49.57
2019-03-02T22:02:24.749Z,47.90
2019-03-02T22:04:51.963Z,52.50
2019-03-02T22:07:18.860Z,47.07
2019-03-02T22:09:47.243Z,47.80
2019-03-02T22:12:14.983Z,43.30
2019-03-02T22:14:42.789Z,35.20
2019-03-02T22:17:10.206Z,56.80
2019-03-02T22:19:37.138Z,55.13
2019-03-02T22:22:03.913Z,53.53
2019-03-02T22:24:30.754Z,39.93
2019-03-02T22:26:57.567Z,39.10
2019-03-02T22:29:25.340Z,50.57
2019-03-02T22:31:52.637Z,50.90
2019-03-02T22:34:20.149Z,49.27
2019-03-02T22:36:47.217Z,31.97
2019-03-02T22:39:14.866Z,43.43
2019-03-02T22:41:42.572Z,36.37
2019-03-02T22:44:10.285Z,44.77
2019-03-02T22:46:36.995Z,46.37
2019-03-02T22:49:05.140Z,41.50
2019-03-02T22:51:34.351Z,30.80
2019-03-02T22:54:01.248Z,30.13
2019-03-02T22:56:28.349Z,44.43
2019-03-02T22:58:55.460Z,49.03
2019-03-02T23:01:48.941Z,40.17
2019-03-02T23:04:15.894Z,35.20
2019-03-02T23:06:43.121Z,32.90
2019-03-02T23:09:10.962Z,51.67
2019-03-02T23:11:39.112Z,48.07
2019-03-02T23:14:06.298Z,45.30
2019-03-02T23:16:33.247Z,54.73
2019-03-02T23:19:00.910Z,34.93
2019-03-02T23:21:27.937Z,33.40
2019-03-02T23:23:55.799Z,39.97
2019-03-02T23:26:22.939Z,37.00
2019-03-02T23:28:50.679Z,43.90
2019-03-02T23:31:17.615Z,55.40
2019-03-02T23:33:44.433Z,40.27
2019-03-02T23:36:11.586Z,38.10
2019-03-02T23:38:38.875Z,32.93
2019-03-02T23:41:07.258Z,37.50
2019-03-02T23:43:34.277Z,45.60
2019-03-02T23:46:02.970Z,48.40
2019-03-02T23:48:30.177Z,55.33
2019-03-02T23:50:58.238Z,53.83
2019-03-02T23:53:25.556Z,49.03
2019-03-02T23:55:52.499Z,30.50
2019-03-02T23:58:19.767Z,36.70
